Time;durP1;ratioP1;P1;durP2;ratioP2;P2;SDS_P1;SDS_P2;PMS_P1;PMS_P2;Temp;Humidity;BMP_temperature;BMP_pressure;BME280_temperature;BME280_humidity;BME280_pressure;Samples;Min_cycle;Max_cycle;Signal;HPM_P1;HPM_P2
2021/09/08 00:01:13;;;;;;;17.08;13.93;;;;;;;;;;4986359;28;20698;-67
2021/09/08 00:03:38;;;;;;;14.88;12.45;;;;;;;;;;4985165;28;20195;-70
2021/09/08 00:06:03;;;;;;;15.07;13.33;;;;;;;;;;4990418;28;20183;-68
2021/09/08 00:08:28;;;;;;;15.55;11.90;;;;;;;;;;4988784;28;20421;-68
2021/09/08 00:10:53;;;;;;;15.40;12.93;;;;;;;;;;4990099;28;20180;-68
2021/09/08 00:13:19;;;;;;;17.38;13.68;;;;;;;;;;4993389;28;20539;-68
2021/09/08 00:15:44;;;;;;;16.83;12.45;;;;;;;;;;4976498;28;20561;-68
2021/09/08 00:18:10;;;;;;;16.63;13.10;;;;;;;;;;4993324;28;20733;-69
2021/09/08 00:20:35;;;;;;;15.23;12.93;;;;;;;;;;4993195;28;20290;-68
2021/09/08 00:23:01;;;;;;;15.50;12.43;;;;;;;;;;4990969;28;20200;-68
2021/09/08 00:25:26;;;;;;;20.93;14.27;;;;;;;;;;4994560;28;20188;-66
2021/09/08 00:27:51;;;;;;;18.08;14.05;;;;;;;;;;4995592;28;20437;-68
2021/09/08 00:30:16;;;;;;;18.08;14.23;;;;;;;;;;4994577;28;20194;-68
2021/09/08 00:32:42;;;;;;;16.13;11.93;;;;;;;;;;4996748;28;20191;-68
2021/09/08 00:35:07;;;;;;;17.17;13.35;;;;;;;;;;4982051;28;20191;-68
2021/09/08 00:37:32;;;;;;;18.55;13.95;;;;;;;;;;4988473;28;20187;-68
2021/09/08 00:39:58;;;;;;;19.08;14.18;;;;;;;;;;4982025;28;20235;-68
2021/09/08 00:42:23;;;;;;;16.00;13.55;;;;;;;;;;4997628;28;20240;-68
2021/09/08 00:44:48;;;;;;;14.52;12.43;;;;;;;;;;4991443;28;20212;-68
2021/09/08 00:47:15;;;;;;;18.25;13.02;;;;;;;;;;4992997;28;20243;-68
2021/09/08 00:49:40;;;;;;;15.85;12.38;;;;;;;;;;4987674;28;20222;-68
2021/09/08 00:52:06;;;;;;;16.40;12.27;;;;;;;;;;4991098;28;20207;-67
2021/09/08 00:54:33;;;;;;;15.57;12.07;;;;;;;;;;4991713;28;20204;-68
2021/09/08 00:56:59;;;;;;;16.02;13.48;;;;;;;;;;4990784;28;20641;-67
2021/09/08 00:59:24;;;;;;;17.30;12.73;;;;;;;;;;4992295;28;20241;-68
2021/09/08 01:01:50;;;;;;;15.00;12.48;;;;;;;;;;4989258;28;20175;-68
2021/09/08 01:04:15;;;;;;;15.47;12.40;;;;;;;;;;4992074;28;20728;-68
2021/09/08 01:06:41;;;;;;;15.90;11.75;;;;;;;;;;4993823;28;20437;-68
2021/09/08 01:09:06;;;;;;;15.02;13.02;;;;;;;;;;4997002;28;20202;-68
2021/09/08 01:11:31;;;;;;;15.10;12.32;;;;;;;;;;4993548;28;20179;-68
2021/09/08 01:13:57;;;;;;;14.73;11.88;;;;;;;;;;4991797;28;20677;-69
2021/09/08 01:16:22;;;;;;;20.95;12.95;;;;;;;;;;4993528;28;20179;-68
2021/09/08 01:18:47;;;;;;;14.88;12.65;;;;;;;;;;4997152;28;20537;-68
2021/09/08 01:21:12;;;;;;;15.88;13.30;;;;;;;;;;4992166;28;20200;-68
2021/09/08 01:23:37;;;;;;;17.92;13.25;;;;;;;;;;4994051;28;20635;-68
2021/09/08 01:26:03;;;;;;;16.60;11.90;;;;;;;;;;4995017;28;20176;-67
2021/09/08 01:28:28;;;;;;;19.20;13.90;;;;;;;;;;4992956;28;20210;-67
2021/09/08 01:30:59;;;;;;;17.30;13.00;;;;;;;;;;4994033;28;20192;-68
2021/09/08 01:33:24;;;;;;;17.95;12.65;;;;;;;;;;4993706;28;20453;-68
2021/09/08 01:35:49;;;;;;;18.60;14.27;;;;;;;;;;4998490;28;20241;-68
2021/09/08 01:38:15;;;;;;;16.77;14.10;;;;;;;;;;4989814;28;20660;-67
2021/09/08 01:40:41;;;;;;;18.13;12.85;;;;;;;;;;4979762;28;20503;-68
2021/09/08 01:43:06;;;;;;;18.70;13.25;;;;;;;;;;4991769;28;20218;-67
2021/09/08 01:45:31;;;;;;;17.60;13.73;;;;;;;;;;4995729;28;20592;-68
2021/09/08 01:47:56;;;;;;;16.95;13.57;;;;;;;;;;4991807;28;20780;-68
2021/09/08 01:50:22;;;;;;;16.27;12.85;;;;;;;;;;4992554;28;20195;-68
2021/09/08 01:52:48;;;;;;;19.90;14.18;;;;;;;;;;4981219;28;20203;-68
2021/09/08 01:55:13;;;;;;;16.63;13.48;;;;;;;;;;4997428;28;20599;-68
2021/09/08 01:57:39;;;;;;;16.63;12.87;;;;;;;;;;4991621;28;20175;-69
2021/09/08 02:00:05;;;;;;;20.02;15.07;;;;;;;;;;4986700;28;20472;-68
2021/09/08 02:02:30;;;;;;;18.73;13.63;;;;;;;;;;4990336;28;20271;-69
2021/09/08 02:04:55;;;;;;;20.73;14.38;;;;;;;;;;4990278;28;20334;-69
2021/09/08 02:07:20;;;;;;;19.88;13.50;;;;;;;;;;4991604;28;20194;-69
2021/09/08 02:09:46;;;;;;;18.30;13.80;;;;;;;;;;4992678;28;20202;-69
2021/09/08 02:12:11;;;;;;;18.50;13.93;;;;;;;;;;4988566;28;20422;-69
2021/09/08 02:14:36;;;;;;;19.20;14.20;;;;;;;;;;4990431;28;20461;-69
2021/09/08 02:17:01;;;;;;;16.85;13.43;;;;;;;;;;4993071;28;20180;-68
2021/09/08 02:19:26;;;;;;;17.83;14.15;;;;;;;;;;4992020;28;20183;-69
2021/09/08 02:21:51;;;;;;;15.05;12.80;;;;;;;;;;4992079;28;20227;-69
2021/09/08 02:24:17;;;;;;;18.65;13.88;;;;;;;;;;4992768;28;20631;-69
2021/09/08 02:26:42;;;;;;;17.90;13.80;;;;;;;;;;4993006;28;20187;-68
2021/09/08 02:29:07;;;;;;;16.38;13.32;;;;;;;;;;4992763;28;20615;-69
2021/09/08 02:31:33;;;;;;;17.90;14.02;;;;;;;;;;4991658;28;20188;-69
2021/09/08 02:33:58;;;;;;;18.20;12.93;;;;;;;;;;4993824;28;20195;-69
2021/09/08 02:36:23;;;;;;;16.35;13.05;;;;;;;;;;4988343;28;20184;-68
2021/09/08 02:38:49;;;;;;;15.95;13.80;;;;;;;;;;4995547;28;20187;-69
2021/09/08 02:41:15;;;;;;;15.05;12.15;;;;;;;;;;4977480;28;20231;-69
2021/09/08 02:43:40;;;;;;;18.85;14.18;;;;;;;;;;4997329;28;20222;-69
2021/09/08 02:46:06;;;;;;;17.52;14.18;;;;;;;;;;4997473;28;20309;-69
2021/09/08 02:48:31;;;;;;;17.23;14.23;;;;;;;;;;4996353;28;20183;-68
2021/09/08 02:50:57;;;;;;;17.95;13.75;;;;;;;;;;4997716;28;20206;-68
2021/09/08 02:53:22;;;;;;;20.70;14.38;;;;;;;;;;4986530;28;20758;-69
2021/09/08 02:55:48;;;;;;;19.73;14.35;;;;;;;;;;4990619;28;20260;-68
2021/09/08 02:58:13;;;;;;;20.02;15.25;;;;;;;;;;4991800;28;20196;-69
2021/09/08 03:00:38;;;;;;;18.23;14.70;;;;;;;;;;4986924;28;20226;-68
2021/09/08 03:03:03;;;;;;;16.67;14.30;;;;;;;;;;4990239;28;20203;-69
2021/09/08 03:05:28;;;;;;;19.27;15.85;;;;;;;;;;4987930;28;20660;-68
2021/09/08 03:07:54;;;;;;;19.60;14.40;;;;;;;;;;4990703;28;20218;-69
2021/09/08 03:10:19;;;;;;;18.00;14.45;;;;;;;;;;4990272;28;20183;-68
2021/09/08 03:12:44;;;;;;;18.40;15.30;;;;;;;;;;4988213;28;20593;-69
2021/09/08 03:15:09;;;;;;;19.77;14.70;;;;;;;;;;4989180;28;20187;-69
2021/09/08 03:17:34;;;;;;;17.52;14.52;;;;;;;;;;4991081;28;20191;-69
2021/09/08 03:20:00;;;;;;;19.73;15.00;;;;;;;;;;4989359;28;20207;-68
2021/09/08 03:22:25;;;;;;;21.23;15.68;;;;;;;;;;4989397;28;20449;-68
2021/09/08 03:24:50;;;;;;;18.73;16.00;;;;;;;;;;4989636;28;20696;-69
2021/09/08 03:27:15;;;;;;;22.77;16.17;;;;;;;;;;4990779;28;20183;-69
2021/09/08 03:29:41;;;;;;;21.45;15.98;;;;;;;;;;4985979;28;20215;-69
2021/09/08 03:32:06;;;;;;;18.27;15.80;;;;;;;;;;4989124;28;20600;-69
2021/09/08 03:34:31;;;;;;;24.13;16.50;;;;;;;;;;4992117;28;20475;-69
2021/09/08 03:36:56;;;;;;;19.92;15.85;;;;;;;;;;4990269;28;20191;-69
2021/09/08 03:39:21;;;;;;;19.77;16.65;;;;;;;;;;4989282;28;20183;-69
2021/09/08 03:41:46;;;;;;;17.88;15.32;;;;;;;;;;4992689;28;20631;-69
2021/09/08 03:44:12;;;;;;;21.25;17.13;;;;;;;;;;4987807;28;20867;-69
2021/09/08 03:46:37;;;;;;;18.33;14.35;;;;;;;;;;4968446;28;20263;-69
2021/09/08 03:49:02;;;;;;;21.42;17.33;;;;;;;;;;4989595;28;20175;-69
2021/09/08 03:51:27;;;;;;;22.65;17.38;;;;;;;;;;4985439;28;20179;-69
2021/09/08 03:53:52;;;;;;;18.92;16.30;;;;;;;;;;4986969;28;20207;-68
2021/09/08 03:56:18;;;;;;;19.65;16.77;;;;;;;;;;4989385;28;20226;-68
2021/09/08 03:58:43;;;;;;;21.17;17.23;;;;;;;;;;4985510;28;20221;-69
2021/09/08 04:01:08;;;;;;;22.07;16.63;;;;;;;;;;4989213;28;20214;-69
2021/09/08 04:03:33;;;;;;;20.95;15.55;;;;;;;;;;4989654;28;20452;-69
2021/09/08 04:05:58;;;;;;;24.35;17.55;;;;;;;;;;4988971;28;20258;-69
2021/09/08 04:08:24;;;;;;;23.63;17.67;;;;;;;;;;4993872;28;20171;-69
2021/09/08 04:10:49;;;;;;;22.90;16.20;;;;;;;;;;4979880;28;20188;-69
2021/09/08 04:13:14;;;;;;;21.27;16.60;;;;;;;;;;4989304;28;20483;-69
2021/09/08 04:15:39;;;;;;;21.75;16.35;;;;;;;;;;4986758;28;20302;-68
2021/09/08 04:18:04;;;;;;;23.65;16.70;;;;;;;;;;4989735;28;20720;-68
2021/09/08 04:20:30;;;;;;;23.13;16.70;;;;;;;;;;4986078;28;20218;-68
2021/09/08 04:22:55;;;;;;;22.67;17.10;;;;;;;;;;4988565;28;20199;-69
2021/09/08 04:25:20;;;;;;;20.52;16.50;;;;;;;;;;4983943;28;20772;-69
2021/09/08 04:27:46;;;;;;;24.02;17.40;;;;;;;;;;4988587;28;20188;-68
2021/09/08 04:30:11;;;;;;;21.98;16.35;;;;;;;;;;4991445;28;20855;-68
2021/09/08 04:32:36;;;;;;;22.45;16.73;;;;;;;;;;4993730;28;20560;-68
2021/09/08 04:35:02;;;;;;;20.90;17.15;;;;;;;;;;4985714;28;20180;-69
2021/09/08 04:37:27;;;;;;;23.05;16.83;;;;;;;;;;4992867;28;20263;-69
2021/09/08 04:39:53;;;;;;;26.40;19.90;;;;;;;;;;4986219;28;20208;-69
2021/09/08 04:42:18;;;;;;;22.60;17.48;;;;;;;;;;4989131;28;20339;-69
2021/09/08 04:44:43;;;;;;;24.95;17.00;;;;;;;;;;4989940;28;20593;-68
2021/09/08 04:47:08;;;;;;;23.27;19.05;;;;;;;;;;4990993;28;20184;-69
2021/09/08 04:49:33;;;;;;;22.70;16.65;;;;;;;;;;4988727;28;20188;-69
2021/09/08 04:51:59;;;;;;;21.50;17.73;;;;;;;;;;4987270;28;20272;-69
2021/09/08 04:54:24;;;;;;;21.77;17.33;;;;;;;;;;4982552;28;20203;-69
2021/09/08 04:56:49;;;;;;;22.63;17.42;;;;;;;;;;4985111;28;20179;-69
2021/09/08 04:59:14;;;;;;;21.77;16.87;;;;;;;;;;4990660;28;20270;-68
2021/09/08 05:01:39;;;;;;;23.15;17.52;;;;;;;;;;4989510;28;20460;-69
2021/09/08 05:04:05;;;;;;;24.75;17.77;;;;;;;;;;4971178;28;20719;-68
2021/09/08 05:06:30;;;;;;;24.77;18.73;;;;;;;;;;4976029;28;20184;-68
2021/09/08 05:08:56;;;;;;;26.10;17.90;;;;;;;;;;4973169;28;20689;-68
2021/09/08 05:11:21;;;;;;;24.02;18.25;;;;;;;;;;4973233;28;20187;-69
2021/09/08 05:13:46;;;;;;;24.63;18.07;;;;;;;;;;4972412;28;20203;-69
2021/09/08 05:16:11;;;;;;;22.52;17.63;;;;;;;;;;4974912;28;20440;-69
2021/09/08 05:18:37;;;;;;;25.23;17.90;;;;;;;;;;4972520;28;20279;-69
2021/09/08 05:21:02;;;;;;;24.60;18.38;;;;;;;;;;4972029;28;21055;-69
2021/09/08 05:23:27;;;;;;;27.77;18.13;;;;;;;;;;4973394;28;20207;-69
2021/09/08 05:25:53;;;;;;;23.77;18.05;;;;;;;;;;4983018;28;20653;-69
2021/09/08 05:28:19;;;;;;;22.77;18.63;;;;;;;;;;4973671;28;20184;-69
2021/09/08 05:30:44;;;;;;;25.15;17.52;;;;;;;;;;4975852;28;20432;-69
2021/09/08 05:33:10;;;;;;;28.13;18.33;;;;;;;;;;4971944;28;20207;-71
2021/09/08 05:35:35;;;;;;;24.20;20.13;;;;;;;;;;4977660;28;20528;-69
2021/09/08 05:38:00;;;;;;;24.13;17.83;;;;;;;;;;4974891;28;20711;-69
2021/09/08 05:40:25;;;;;;;22.47;17.67;;;;;;;;;;4974901;28;20207;-69
2021/09/08 05:42:50;;;;;;;23.58;18.23;;;;;;;;;;4972606;28;20453;-68
2021/09/08 05:45:16;;;;;;;24.80;17.15;;;;;;;;;;4976859;28;20266;-69
2021/09/08 05:47:41;;;;;;;24.58;17.90;;;;;;;;;;4972637;28;20254;-67
2021/09/08 05:50:06;;;;;;;22.17;18.38;;;;;;;;;;4975821;28;20187;-69
2021/09/08 05:52:32;;;;;;;24.50;18.10;;;;;;;;;;4963864;28;20716;-69
2021/09/08 05:54:57;;;;;;;23.98;17.27;;;;;;;;;;4972222;28;20180;-69
2021/09/08 05:57:22;;;;;;;22.05;17.45;;;;;;;;;;4973142;28;20198;-68
2021/09/08 05:59:47;;;;;;;23.08;17.88;;;;;;;;;;4974154;28;20229;-68
2021/09/08 06:02:12;;;;;;;24.42;18.17;;;;;;;;;;4974060;28;20183;-70
2021/09/08 06:04:37;;;;;;;21.77;17.25;;;;;;;;;;4978668;28;20208;-69
2021/09/08 06:07:03;;;;;;;23.80;18.33;;;;;;;;;;4978089;28;20915;-68
2021/09/08 06:09:28;;;;;;;22.85;17.65;;;;;;;;;;4977585;28;20437;-68
2021/09/08 06:11:56;;;;;;;22.67;17.70;;;;;;;;;;4955107;28;20191;-68
2021/09/08 06:14:22;;;;;;;24.15;17.42;;;;;;;;;;4972265;28;20208;-69
2021/09/08 06:16:47;;;;;;;21.83;16.40;;;;;;;;;;4977036;28;20635;-68
2021/09/08 06:19:12;;;;;;;21.33;16.75;;;;;;;;;;4971643;28;20704;-69
2021/09/08 06:21:37;;;;;;;23.55;17.27;;;;;;;;;;4976841;28;20200;-69
2021/09/08 06:24:03;;;;;;;26.65;18.00;;;;;;;;;;4957798;28;20199;-68
2021/09/08 06:26:29;;;;;;;21.65;17.48;;;;;;;;;;4974728;28;20203;-69
2021/09/08 06:28:54;;;;;;;20.35;17.80;;;;;;;;;;4970262;28;20658;-68
2021/09/08 06:31:19;;;;;;;21.50;17.25;;;;;;;;;;4976686;28;20211;-68
2021/09/08 06:33:45;;;;;;;21.42;16.15;;;;;;;;;;4979784;28;20228;-69
2021/09/08 06:36:10;;;;;;;19.73;16.63;;;;;;;;;;4985370;28;20203;-69
2021/09/08 06:38:35;;;;;;;20.95;16.65;;;;;;;;;;4980039;28;20203;-68
2021/09/08 06:41:01;;;;;;;19.98;16.50;;;;;;;;;;4979396;28;20200;-68
2021/09/08 06:43:27;;;;;;;20.77;17.85;;;;;;;;;;4975055;28;20218;-69
2021/09/08 06:45:52;;;;;;;20.67;17.05;;;;;;;;;;4976068;28;20556;-70
2021/09/08 06:48:17;;;;;;;22.20;17.10;;;;;;;;;;4972248;28;22340;-68
2021/09/08 06:50:42;;;;;;;23.00;16.90;;;;;;;;;;4959911;28;20180;-69
2021/09/08 06:53:08;;;;;;;21.33;16.25;;;;;;;;;;4981512;28;20211;-69
2021/09/08 06:55:33;;;;;;;20.03;16.50;;;;;;;;;;4983114;28;20633;-69
2021/09/08 06:57:58;;;;;;;20.55;16.02;;;;;;;;;;4978350;28;20512;-69
2021/09/08 07:00:23;;;;;;;22.17;16.83;;;;;;;;;;4978861;28;20203;-68
2021/09/08 07:02:49;;;;;;;24.15;15.98;;;;;;;;;;4981263;28;20230;-69
2021/09/08 07:05:15;;;;;;;19.90;16.37;;;;;;;;;;4978197;28;20191;-68
2021/09/08 07:07:40;;;;;;;20.08;15.50;;;;;;;;;;4959275;28;20820;-69
2021/09/08 07:10:05;;;;;;;19.23;15.23;;;;;;;;;;4978394;28;20188;-69
2021/09/08 07:12:31;;;;;;;19.38;15.80;;;;;;;;;;4979854;28;20453;-68
2021/09/08 07:14:56;;;;;;;17.23;15.13;;;;;;;;;;4984307;28;20199;-68
2021/09/08 07:17:21;;;;;;;20.52;15.27;;;;;;;;;;4976661;28;20448;-70
2021/09/08 07:19:46;;;;;;;21.15;16.05;;;;;;;;;;4976143;28;20310;-68
2021/09/08 07:22:11;;;;;;;16.47;14.73;;;;;;;;;;4976731;28;20323;-68
2021/09/08 07:24:38;;;;;;;19.50;14.85;;;;;;;;;;4973805;28;20452;-69
2021/09/08 07:27:03;;;;;;;18.25;15.27;;;;;;;;;;4974981;28;20315;-67
2021/09/08 07:29:29;;;;;;;17.55;15.65;;;;;;;;;;4978667;28;20184;-67
2021/09/08 07:31:54;;;;;;;21.73;15.18;;;;;;;;;;4980212;28;20180;-67
2021/09/08 07:34:20;;;;;;;17.00;15.10;;;;;;;;;;4978523;28;20207;-67
2021/09/08 07:36:45;;;;;;;18.75;15.07;;;;;;;;;;4982093;28;20297;-67
2021/09/08 07:39:10;;;;;;;18.00;15.52;;;;;;;;;;4980124;28;20183;-68
2021/09/08 07:41:35;;;;;;;16.27;14.57;;;;;;;;;;4973012;28;20207;-68
2021/09/08 07:44:01;;;;;;;18.00;14.27;;;;;;;;;;4981890;28;20219;-68
2021/09/08 07:46:26;;;;;;;19.67;15.70;;;;;;;;;;4982137;28;20531;-68
2021/09/08 07:48:51;;;;;;;18.07;14.47;;;;;;;;;;4975162;28;20176;-68
2021/09/08 07:51:16;;;;;;;18.02;14.50;;;;;;;;;;4983069;28;20965;-69
2021/09/08 07:53:41;;;;;;;15.73;14.00;;;;;;;;;;4982119;28;20203;-69
2021/09/08 07:56:07;;;;;;;16.63;14.77;;;;;;;;;;4973546;28;20246;-68
2021/09/08 07:58:32;;;;;;;17.00;13.93;;;;;;;;;;4977301;28;20434;-68
2021/09/08 08:00:58;;;;;;;19.20;14.67;;;;;;;;;;4977591;28;20209;-69
2021/09/08 08:03:23;;;;;;;18.58;14.63;;;;;;;;;;4979415;28;21180;-68
2021/09/08 08:05:48;;;;;;;18.87;14.90;;;;;;;;;;4983939;28;20801;-67
2021/09/08 08:08:13;;;;;;;18.23;15.18;;;;;;;;;;4977608;28;20457;-67
2021/09/08 08:10:39;;;;;;;22.27;14.88;;;;;;;;;;4981817;28;20199;-68
2021/09/08 08:13:04;;;;;;;15.75;13.15;;;;;;;;;;4980318;28;20323;-68
2021/09/08 08:15:30;;;;;;;15.77;13.80;;;;;;;;;;4981544;28;20262;-69
2021/09/08 08:17:55;;;;;;;17.20;13.93;;;;;;;;;;4978579;28;20187;-67
2021/09/08 08:20:21;;;;;;;17.95;14.60;;;;;;;;;;4976927;28;20239;-67
2021/09/08 08:22:46;;;;;;;19.00;13.95;;;;;;;;;;4971924;28;20184;-67
2021/09/08 08:25:13;;;;;;;20.83;14.73;;;;;;;;;;4977316;28;20230;-68
2021/09/08 08:27:39;;;;;;;18.25;13.95;;;;;;;;;;4980156;28;20238;-68
2021/09/08 08:30:05;;;;;;;22.15;13.27;;;;;;;;;;4980519;28;20191;-68
2021/09/08 08:32:30;;;;;;;24.90;14.55;;;;;;;;;;4978234;28;20194;-68
2021/09/08 08:34:56;;;;;;;17.85;14.30;;;;;;;;;;4981968;28;20175;-68
2021/09/08 08:37:21;;;;;;;16.73;14.00;;;;;;;;;;4968447;28;20184;-67
2021/09/08 08:39:46;;;;;;;15.27;12.80;;;;;;;;;;4983199;28;20467;-68
2021/09/08 08:42:31;;;;;;;17.55;13.23;;;;;;;;;;4983342;28;20954;-68
2021/09/08 08:44:56;;;;;;;16.13;13.80;;;;;;;;;;4985085;28;20250;-68
2021/09/08 08:47:22;;;;;;;17.98;13.48;;;;;;;;;;4983873;28;21729;-68
2021/09/08 08:49:48;;;;;;;19.08;13.77;;;;;;;;;;4984780;28;20233;-68
2021/09/08 08:52:14;;;;;;;20.55;14.88;;;;;;;;;;4983846;28;20208;-68
2021/09/08 08:54:39;;;;;;;16.73;13.70;;;;;;;;;;4982456;28;20840;-68
2021/09/08 08:57:07;;;;;;;16.63;13.07;;;;;;;;;;4982411;28;20176;-68
2021/09/08 08:59:34;;;;;;;18.80;13.60;;;;;;;;;;4976822;28;21821;-68
2021/09/08 09:02:15;;;;;;;14.63;12.80;;;;;;;;;;4985563;28;20296;-68
2021/09/08 09:04:40;;;;;;;18.23;13.57;;;;;;;;;;4978876;28;20628;-68
2021/09/08 09:07:05;;;;;;;19.27;13.67;;;;;;;;;;4976240;28;20188;-68
2021/09/08 09:09:30;;;;;;;17.33;12.80;;;;;;;;;;4976575;28;20429;-68
2021/09/08 09:11:58;;;;;;;17.47;13.13;;;;;;;;;;4983831;28;20926;-67
2021/09/08 09:14:24;;;;;;;15.98;13.85;;;;;;;;;;4981523;28;20218;-67
2021/09/08 09:16:49;;;;;;;15.90;12.70;;;;;;;;;;4982474;28;20180;-67
2021/09/08 09:19:14;;;;;;;15.73;13.77;;;;;;;;;;4981237;28;20940;-67
2021/09/08 09:21:39;;;;;;;18.77;12.63;;;;;;;;;;4983002;28;20290;-67
2021/09/08 09:24:06;;;;;;;15.05;12.75;;;;;;;;;;4982461;28;20455;-67
2021/09/08 09:26:33;;;;;;;15.48;13.48;;;;;;;;;;4983518;28;20570;-67
2021/09/08 09:29:04;;;;;;;14.50;13.00;;;;;;;;;;4983259;28;20179;-67
2021/09/08 09:31:29;;;;;;;16.52;13.52;;;;;;;;;;4982068;28;20263;-67
2021/09/08 09:33:56;;;;;;;13.45;11.98;;;;;;;;;;4984630;28;20267;-67
2021/09/08 09:36:22;;;;;;;15.43;12.75;;;;;;;;;;4982578;28;20179;-69
2021/09/08 09:38:49;;;;;;;16.88;12.73;;;;;;;;;;4984820;28;20187;-69
2021/09/08 09:41:16;;;;;;;19.23;12.57;;;;;;;;;;4984666;28;20203;-69
2021/09/08 09:43:42;;;;;;;15.85;12.98;;;;;;;;;;4981763;28;20291;-69
2021/09/08 09:46:07;;;;;;;16.27;12.60;;;;;;;;;;4980973;28;20271;-69
2021/09/08 09:48:33;;;;;;;14.40;11.40;;;;;;;;;;4980914;28;20180;-69
2021/09/08 09:51:01;;;;;;;15.23;13.50;;;;;;;;;;4982315;28;20661;-69
2021/09/08 09:53:27;;;;;;;13.23;11.57;;;;;;;;;;4981407;28;20547;-70
2021/09/08 09:55:53;;;;;;;14.05;12.10;;;;;;;;;;4981385;28;22298;-69
2021/09/08 09:58:19;;;;;;;16.65;12.85;;;;;;;;;;4984026;28;20255;-69
2021/09/08 10:00:44;;;;;;;15.23;11.60;;;;;;;;;;4980348;28;20214;-68
2021/09/08 10:03:10;;;;;;;14.83;11.67;;;;;;;;;;4980193;28;20200;-69
2021/09/08 10:05:35;;;;;;;14.65;11.02;;;;;;;;;;4981916;28;20202;-69
2021/09/08 10:08:01;;;;;;;17.15;12.68;;;;;;;;;;4990266;28;20270;-69
2021/09/08 10:10:29;;;;;;;14.60;11.63;;;;;;;;;;4982985;28;20195;-69
2021/09/08 10:12:56;;;;;;;15.90;10.35;;;;;;;;;;4980989;28;20210;-69
2021/09/08 10:15:22;;;;;;;16.17;10.43;;;;;;;;;;4980504;28;20406;-69
2021/09/08 10:17:47;;;;;;;12.85;10.73;;;;;;;;;;4974294;28;20191;-69
2021/09/08 10:20:20;;;;;;;13.02;11.07;;;;;;;;;;4961886;28;20207;-69
2021/09/08 10:22:46;;;;;;;13.93;11.57;;;;;;;;;;4982433;28;20198;-72
2021/09/08 10:25:16;;;;;;;15.65;12.40;;;;;;;;;;4982062;28;20600;-69
2021/09/08 10:27:41;;;;;;;16.23;12.75;;;;;;;;;;4982894;28;20195;-69
2021/09/08 10:30:07;;;;;;;12.98;10.40;;;;;;;;;;4986713;28;20645;-70
2021/09/08 10:32:33;;;;;;;13.40;11.15;;;;;;;;;;4977748;28;20198;-69
2021/09/08 10:34:58;;;;;;;11.52;9.93;;;;;;;;;;4982663;28;20677;-69
2021/09/08 10:37:23;;;;;;;11.07;9.82;;;;;;;;;;4986617;28;20176;-69
2021/09/08 10:39:49;;;;;;;11.82;10.30;;;;;;;;;;4987634;28;20179;-69
2021/09/08 10:42:14;;;;;;;13.13;10.25;;;;;;;;;;4985367;28;20602;-69
2021/09/08 10:44:50;;;;;;;12.82;11.30;;;;;;;;;;4983336;28;20211;-69
2021/09/08 10:47:33;;;;;;;11.88;10.05;;;;;;;;;;4975234;28;20186;-70
2021/09/08 10:49:58;;;;;;;9.50;8.48;;;;;;;;;;4992508;28;20184;-69
2021/09/08 10:52:38;;;;;;;12.18;9.93;;;;;;;;;;4992454;28;20175;-69
2021/09/08 10:55:11;;;;;;;10.77;9.70;;;;;;;;;;4966660;28;20207;-69
2021/09/08 10:57:40;;;;;;;11.57;10.30;;;;;;;;;;4979900;28;20173;-70
2021/09/08 11:00:05;;;;;;;13.63;10.20;;;;;;;;;;4981865;28;20300;-69
2021/09/08 11:02:31;;;;;;;15.82;11.35;;;;;;;;;;4975223;28;20371;-69
2021/09/08 11:04:59;;;;;;;15.60;10.63;;;;;;;;;;4974358;28;20960;-69
2021/09/08 11:07:24;;;;;;;11.23;9.73;;;;;;;;;;4979493;28;20211;-70
2021/09/08 11:09:50;;;;;;;11.25;10.10;;;;;;;;;;4982324;28;20207;-72
2021/09/08 11:12:15;;;;;;;13.45;10.10;;;;;;;;;;4964718;28;20199;-69
2021/09/08 11:14:48;;;;;;;12.23;10.20;;;;;;;;;;4981519;28;20235;-69
2021/09/08 11:17:19;;;;;;;12.25;8.95;;;;;;;;;;4980049;28;20437;-69
2021/09/08 11:19:48;;;;;;;8.90;8.07;;;;;;;;;;4980362;28;20882;-69
2021/09/08 11:22:16;;;;;;;10.70;9.68;;;;;;;;;;4982552;28;20709;-69
2021/09/08 11:24:41;;;;;;;10.68;8.90;;;;;;;;;;4977570;28;20222;-70
2021/09/08 11:27:08;;;;;;;12.13;9.40;;;;;;;;;;4976591;28;20358;-69
2021/09/08 11:29:33;;;;;;;10.50;9.43;;;;;;;;;;4974378;28;20171;-69
2021/09/08 11:31:58;;;;;;;12.83;8.23;;;;;;;;;;4981201;28;20684;-69
2021/09/08 11:34:25;;;;;;;14.63;9.83;;;;;;;;;;4979677;28;20271;-69
2021/09/08 11:36:51;;;;;;;11.52;9.60;;;;;;;;;;4979740;28;20649;-69
2021/09/08 11:39:16;;;;;;;14.02;9.48;;;;;;;;;;4984446;28;20182;-69
2021/09/08 11:41:51;;;;;;;13.93;10.43;;;;;;;;;;4977503;28;20626;-69
2021/09/08 11:44:17;;;;;;;9.00;7.47;;;;;;;;;;4974094;28;20214;-69
2021/09/08 11:46:42;;;;;;;9.50;8.33;;;;;;;;;;4972859;28;20242;-69
2021/09/08 11:49:08;;;;;;;10.17;7.63;;;;;;;;;;4977575;28;20218;-68
2021/09/08 11:51:35;;;;;;;9.25;8.30;;;;;;;;;;4981577;28;20688;-68
2021/09/08 11:54:03;;;;;;;9.30;8.38;;;;;;;;;;4986421;28;20551;-69
2021/09/08 11:56:28;;;;;;;9.70;8.07;;;;;;;;;;4991661;28;20168;-69
2021/09/08 11:58:54;;;;;;;10.63;9.20;;;;;;;;;;4989207;28;20187;-69
2021/09/08 12:01:20;;;;;;;11.98;9.00;;;;;;;;;;4982466;28;20468;-67
2021/09/08 12:03:49;;;;;;;9.63;8.68;;;;;;;;;;4977838;28;20205;-68
2021/09/08 12:06:16;;;;;;;10.50;8.35;;;;;;;;;;4977999;28;20652;-68
2021/09/08 12:08:57;;;;;;;9.43;7.82;;;;;;;;;;4977783;28;20179;-68
2021/09/08 12:11:41;;;;;;;11.25;10.07;;;;;;;;;;4983169;28;20191;-69
2021/09/08 12:14:16;;;;;;;10.93;9.20;;;;;;;;;;4983784;28;20202;-69
2021/09/08 12:16:42;;;;;;;11.52;9.13;;;;;;;;;;4979007;28;20213;-68
2021/09/08 12:19:14;;;;;;;9.77;8.88;;;;;;;;;;4982320;28;21007;-69
2021/09/08 12:21:39;;;;;;;11.25;9.85;;;;;;;;;;4983996;28;20648;-69
2021/09/08 12:24:18;;;;;;;11.73;10.05;;;;;;;;;;4984771;28;20274;-69
2021/09/08 12:26:43;;;;;;;10.40;8.98;;;;;;;;;;4965575;28;20236;-70
2021/09/08 12:29:08;;;;;;;9.17;8.37;;;;;;;;;;4982158;28;20869;-70
2021/09/08 12:31:45;;;;;;;13.03;9.73;;;;;;;;;;4982785;28;20203;-69
2021/09/08 12:34:10;;;;;;;12.40;9.02;;;;;;;;;;4983073;28;20491;-69
2021/09/08 12:36:35;;;;;;;10.93;8.57;;;;;;;;;;4983728;28;20206;-69
2021/09/08 12:39:09;;;;;;;11.87;9.43;;;;;;;;;;4986489;28;20190;-67
2021/09/08 12:41:34;;;;;;;11.45;10.05;;;;;;;;;;4977154;28;20574;-68
2021/09/08 12:44:01;;;;;;;9.70;8.70;;;;;;;;;;4983895;28;20394;-68
2021/09/08 12:46:44;;;;;;;10.57;9.15;;;;;;;;;;4982343;28;20194;-67
2021/09/08 12:49:16;;;;;;;13.05;9.93;;;;;;;;;;4980597;28;20182;-68
2021/09/08 12:51:42;;;;;;;13.73;9.55;;;;;;;;;;4986124;28;20582;-68
2021/09/08 12:54:14;;;;;;;10.57;9.23;;;;;;;;;;4980408;28;20210;-69
2021/09/08 12:56:43;;;;;;;12.93;9.30;;;;;;;;;;4982970;28;20171;-68
2021/09/08 12:59:08;;;;;;;9.48;8.50;;;;;;;;;;4983878;28;20214;-68
2021/09/08 13:01:34;;;;;;;11.75;8.90;;;;;;;;;;4983150;28;20206;-68
2021/09/08 13:03:59;;;;;;;15.15;9.73;;;;;;;;;;4983014;28;20199;-68
2021/09/08 13:06:24;;;;;;;13.00;8.75;;;;;;;;;;4985417;28;20182;-68
2021/09/08 13:08:49;;;;;;;12.20;9.32;;;;;;;;;;4979179;28;20658;-68
2021/09/08 13:11:15;;;;;;;10.35;9.25;;;;;;;;;;4982827;28;20563;-68
2021/09/08 13:13:40;;;;;;;10.10;8.30;;;;;;;;;;4982927;28;21379;-68
2021/09/08 13:16:06;;;;;;;10.65;8.82;;;;;;;;;;4981134;28;20183;-68
2021/09/08 13:18:31;;;;;;;10.43;9.40;;;;;;;;;;4981153;28;20184;-68
2021/09/08 13:20:56;;;;;;;9.65;8.45;;;;;;;;;;4982179;28;20207;-68
2021/09/08 13:23:22;;;;;;;10.77;8.90;;;;;;;;;;4984630;28;20195;-68
2021/09/08 13:25:47;;;;;;;10.00;8.47;;;;;;;;;;4986843;28;20711;-69
2021/09/08 13:28:12;;;;;;;11.80;9.63;;;;;;;;;;4983824;28;20191;-68
2021/09/08 13:30:37;;;;;;;12.77;10.33;;;;;;;;;;4980924;28;20184;-70
2021/09/08 13:33:02;;;;;;;11.23;8.67;;;;;;;;;;4981007;28;20230;-68
2021/09/08 13:35:28;;;;;;;10.93;9.30;;;;;;;;;;4984575;28;20576;-69
2021/09/08 13:37:53;;;;;;;9.55;8.65;;;;;;;;;;4978598;28;20421;-68
2021/09/08 13:40:18;;;;;;;10.63;9.17;;;;;;;;;;4982260;28;20215;-68
2021/09/08 13:42:43;;;;;;;10.48;9.30;;;;;;;;;;4981057;28;20652;-68
2021/09/08 13:45:09;;;;;;;10.10;9.03;;;;;;;;;;4965333;28;20175;-68
2021/09/08 13:47:34;;;;;;;12.75;9.02;;;;;;;;;;4981024;28;22330;-67
2021/09/08 13:50:00;;;;;;;12.70;8.73;;;;;;;;;;4981865;28;20179;-69
2021/09/08 13:52:25;;;;;;;10.05;8.65;;;;;;;;;;4982161;28;20183;-68
2021/09/08 13:54:50;;;;;;;12.48;9.18;;;;;;;;;;4980785;28;20208;-68
2021/09/08 13:57:15;;;;;;;10.73;9.23;;;;;;;;;;4981022;28;20245;-68
2021/09/08 13:59:40;;;;;;;9.97;8.77;;;;;;;;;;4980562;28;20191;-68
2021/09/08 14:02:06;;;;;;;10.47;9.03;;;;;;;;;;4982249;28;20210;-67
2021/09/08 14:04:31;;;;;;;10.52;8.68;;;;;;;;;;4982577;28;20242;-68
2021/09/08 14:06:56;;;;;;;10.10;9.10;;;;;;;;;;4979743;28;20242;-67
2021/09/08 14:09:21;;;;;;;12.10;8.80;;;;;;;;;;4982674;28;20198;-67
2021/09/08 14:11:47;;;;;;;11.87;9.67;;;;;;;;;;4978971;28;20541;-67
2021/09/08 14:14:12;;;;;;;9.95;8.95;;;;;;;;;;4979098;28;20457;-68